Terminal Aerodrome Forecast
Issued by NWS

Home | Current Version | Previous Version | Text Only | Print | Product List | Glossary On
Versions: 1 2 3 4 5 6 7 8 9 10 11 12
000
FTUS45 KMSO 030526
TAFSMN
TAF
KSMN 030526Z 0306/0406 14005KT P6SM SKC
     FM031800 19008KT P6SM VCSH SCT150
     FM040000 23012G20KT P6SM VCSH BKN120
     FM040400 34007KT P6SM BKN100
      AMD LTD TO CLD VIS AND WIND=

USA.gov is the U.S. government's official web portal to all federal, state and local government web resources and services.